<?xml version="1.0" encoding="UTF-8" standalone="no" ?>
<gpx xmlns="http://www.topografix.com/GPX/1/1" xmlns:xsi="http://www.w3.org/2001/XMLSchema-instance" xsi:schemaLocation="http://www.topografix.com/GPX/1/1 http://www.topografix.com/GPX/1/1/gpx.xsd" version="1.1" creator="VisuGPX - https://www.visugpx.com">
  <metadata>
    <name>2ème étape PLM 2016 : Corny - Jumiège (moins forts)</name>
    <desc><![CDATA[PLM 2016 : 2ème étape Corny - Jumiège, parcours pour les moins forts]]></desc>
  </metadata>
  <trk>
    <name><![CDATA[--Corny-- OR-5790371:2ème étape PLM Corny - Jumièges (-forts)]]></name>
    <trkseg>
      <trkpt lat="49.28335" lon="1.45769">
        <ele>140</ele>
        <time>2016-04-29T17:45:22Z</time>
      </trkpt>
      <trkpt lat="49.28317" lon="1.45569">
        <ele>139</ele>
        <time>2016-04-29T17:47:22Z</time>
      </trkpt>
      <trkpt lat="49.28404" lon="1.45505">
        <ele>140</ele>
        <time>2016-04-29T17:49:22Z</time>
      </trkpt>
      <trkpt lat="49.28427" lon="1.4544">
        <ele>138</ele>
        <time>2016-04-29T17:51:22Z</time>
      </trkpt>
      <trkpt lat="49.28446" lon="1.45264">
        <ele>140</ele>
        <time>2016-04-29T17:53:22Z</time>
      </trkpt>
      <trkpt lat="49.28429" lon="1.44835">
        <ele>116</ele>
        <time>2016-04-29T17:55:22Z</time>
      </trkpt>
      <trkpt lat="49.28424" lon="1.44737">
        <ele>102</ele>
        <time>2016-04-29T17:57:22Z</time>
      </trkpt>
      <trkpt lat="49.28427" lon="1.44578">
        <ele>86</ele>
        <time>2016-04-29T17:59:22Z</time>
      </trkpt>
      <trkpt lat="49.2841" lon="1.44518">
        <ele>80</ele>
        <time>2016-04-29T18:01:22Z</time>
      </trkpt>
      <trkpt lat="49.28399" lon="1.4444">
        <ele>77</ele>
        <time>2016-04-29T18:03:22Z</time>
      </trkpt>
      <trkpt lat="49.28354" lon="1.44363">
        <ele>78</ele>
        <time>2016-04-29T18:05:22Z</time>
      </trkpt>
      <trkpt lat="49.28284" lon="1.44101">
        <ele>92</ele>
        <time>2016-04-29T18:07:22Z</time>
      </trkpt>
      <trkpt lat="49.28303" lon="1.4405">
        <ele>94</ele>
        <time>2016-04-29T18:09:22Z</time>
      </trkpt>
      <trkpt lat="49.28407" lon="1.44003">
        <ele>98</ele>
        <time>2016-04-29T18:11:22Z</time>
      </trkpt>
      <trkpt lat="49.2846" lon="1.43891">
        <ele>108</ele>
        <time>2016-04-29T18:13:22Z</time>
      </trkpt>
      <trkpt lat="49.28553" lon="1.43844">
        <ele>114</ele>
        <time>2016-04-29T18:15:22Z</time>
      </trkpt>
      <trkpt lat="49.28617" lon="1.43831">
        <ele>118</ele>
        <time>2016-04-29T18:17:22Z</time>
      </trkpt>
      <trkpt lat="49.28639" lon="1.4378">
        <ele>123</ele>
        <time>2016-04-29T18:19:22Z</time>
      </trkpt>
      <trkpt lat="49.28569" lon="1.43741">
        <ele>125</ele>
        <time>2016-04-29T18:21:22Z</time>
      </trkpt>
      <trkpt lat="49.28511" lon="1.43634">
        <ele>127</ele>
        <time>2016-04-29T18:23:22Z</time>
      </trkpt>
      <trkpt lat="49.28625" lon="1.43089">
        <ele>133</ele>
        <time>2016-04-29T18:25:22Z</time>
      </trkpt>
      <trkpt lat="49.28631" lon="1.42981">
        <ele>132</ele>
        <time>2016-04-29T18:27:22Z</time>
      </trkpt>
      <trkpt lat="49.28726" lon="1.42685">
        <ele>137</ele>
        <time>2016-04-29T18:29:22Z</time>
      </trkpt>
      <trkpt lat="49.2886" lon="1.41947">
        <ele>137</ele>
        <time>2016-04-29T18:31:22Z</time>
      </trkpt>
      <trkpt lat="49.289" lon="1.41775">
        <ele>139</ele>
        <time>2016-04-29T18:33:22Z</time>
      </trkpt>
      <trkpt lat="49.28998" lon="1.41578">
        <ele>142</ele>
        <time>2016-04-29T18:35:22Z</time>
      </trkpt>
      <trkpt lat="49.28844" lon="1.41398">
        <ele>140</ele>
        <time>2016-04-29T18:37:22Z</time>
      </trkpt>
      <trkpt lat="49.28748" lon="1.41153">
        <ele>139</ele>
        <time>2016-04-29T18:39:22Z</time>
      </trkpt>
      <trkpt lat="49.28726" lon="1.41029">
        <ele>140</ele>
        <time>2016-04-29T18:41:22Z</time>
      </trkpt>
      <trkpt lat="49.28659" lon="1.40879">
        <ele>140</ele>
        <time>2016-04-29T18:43:22Z</time>
      </trkpt>
      <trkpt lat="49.28695" lon="1.40801">
        <ele>141</ele>
        <time>2016-04-29T18:45:22Z</time>
      </trkpt>
      <trkpt lat="49.28838" lon="1.4066">
        <ele>144</ele>
        <time>2016-04-29T18:47:22Z</time>
      </trkpt>
      <trkpt lat="49.28723" lon="1.40488">
        <ele>141</ele>
        <time>2016-04-29T18:49:22Z</time>
      </trkpt>
      <trkpt lat="49.28734" lon="1.40351">
        <ele>137</ele>
        <time>2016-04-29T18:51:22Z</time>
      </trkpt>
      <trkpt lat="49.28802" lon="1.40222">
        <ele>137</ele>
        <time>2016-04-29T18:53:22Z</time>
      </trkpt>
      <trkpt lat="49.28679" lon="1.40235">
        <ele>136</ele>
        <time>2016-04-29T18:55:22Z</time>
      </trkpt>
      <trkpt lat="49.28804" lon="1.3996">
        <ele>141</ele>
        <time>2016-04-29T18:57:22Z</time>
      </trkpt>
      <trkpt lat="49.29168" lon="1.39578">
        <ele>144</ele>
        <time>2016-04-29T18:59:22Z</time>
      </trkpt>
      <trkpt lat="49.29028" lon="1.39316">
        <ele>147</ele>
        <time>2016-04-29T19:01:22Z</time>
      </trkpt>
      <trkpt lat="49.29019" lon="1.39207">
        <ele>149</ele>
        <time>2016-04-29T19:03:22Z</time>
      </trkpt>
      <trkpt lat="49.29689" lon="1.3875">
        <ele>140</ele>
        <time>2016-04-29T19:05:22Z</time>
      </trkpt>
      <trkpt lat="49.29751" lon="1.38602">
        <ele>138</ele>
        <time>2016-04-29T19:07:22Z</time>
      </trkpt>
      <trkpt lat="49.29781" lon="1.38471">
        <ele>137</ele>
        <time>2016-04-29T19:09:22Z</time>
      </trkpt>
      <trkpt lat="49.29823" lon="1.38286">
        <ele>139</ele>
        <time>2016-04-29T19:11:22Z</time>
      </trkpt>
      <trkpt lat="49.29829" lon="1.38209">
        <ele>139</ele>
        <time>2016-04-29T19:13:22Z</time>
      </trkpt>
      <trkpt lat="49.29833" lon="1.38087">
        <ele>139</ele>
        <time>2016-04-29T19:15:22Z</time>
      </trkpt>
      <trkpt lat="49.29948" lon="1.37726">
        <ele>141</ele>
        <time>2016-04-29T19:17:22Z</time>
      </trkpt>
      <trkpt lat="49.29997" lon="1.37611">
        <ele>141</ele>
        <time>2016-04-29T19:19:22Z</time>
      </trkpt>
      <trkpt lat="49.30051" lon="1.37525">
        <ele>142</ele>
        <time>2016-04-29T19:21:22Z</time>
      </trkpt>
      <trkpt lat="49.3012" lon="1.37437">
        <ele>145</ele>
        <time>2016-04-29T19:23:22Z</time>
      </trkpt>
      <trkpt lat="49.30092" lon="1.3728">
        <ele>145</ele>
        <time>2016-04-29T19:25:22Z</time>
      </trkpt>
      <trkpt lat="49.30026" lon="1.37117">
        <ele>147</ele>
        <time>2016-04-29T19:27:22Z</time>
      </trkpt>
      <trkpt lat="49.30023" lon="1.36825">
        <ele>152</ele>
        <time>2016-04-29T19:29:22Z</time>
      </trkpt>
      <trkpt lat="49.30008" lon="1.36744">
        <ele>153</ele>
        <time>2016-04-29T19:31:22Z</time>
      </trkpt>
      <trkpt lat="49.29774" lon="1.36169">
        <ele>152</ele>
        <time>2016-04-29T19:33:22Z</time>
      </trkpt>
      <trkpt lat="49.29664" lon="1.35776">
        <ele>148</ele>
        <time>2016-04-29T19:35:22Z</time>
      </trkpt>
      <trkpt lat="49.29913" lon="1.35447">
        <ele>155</ele>
        <time>2016-04-29T19:37:22Z</time>
      </trkpt>
      <trkpt lat="49.29949" lon="1.35334">
        <ele>155</ele>
        <time>2016-04-29T19:39:22Z</time>
      </trkpt>
      <trkpt lat="49.29903" lon="1.35222">
        <ele>153</ele>
        <time>2016-04-29T19:41:22Z</time>
      </trkpt>
      <trkpt lat="49.29925" lon="1.3504">
        <ele>153</ele>
        <time>2016-04-29T19:43:22Z</time>
      </trkpt>
      <trkpt lat="49.30617" lon="1.34461">
        <ele>144</ele>
        <time>2016-04-29T19:45:22Z</time>
      </trkpt>
      <trkpt lat="49.30583" lon="1.34347">
        <ele>142</ele>
        <time>2016-04-29T19:47:22Z</time>
      </trkpt>
      <trkpt lat="49.30587" lon="1.34212">
        <ele>142</ele>
        <time>2016-04-29T19:49:22Z</time>
      </trkpt>
      <trkpt lat="49.30576" lon="1.33969">
        <ele>145</ele>
        <time>2016-04-29T19:51:22Z</time>
      </trkpt>
      <trkpt lat="49.3058" lon="1.33624">
        <ele>149</ele>
        <time>2016-04-29T19:53:22Z</time>
      </trkpt>
      <trkpt lat="49.30556" lon="1.33497">
        <ele>149</ele>
        <time>2016-04-29T19:55:22Z</time>
      </trkpt>
      <trkpt lat="49.30684" lon="1.33188">
        <ele>149</ele>
        <time>2016-04-29T19:57:22Z</time>
      </trkpt>
      <trkpt lat="49.3081" lon="1.32682">
        <ele>151</ele>
        <time>2016-04-29T19:59:22Z</time>
      </trkpt>
      <trkpt lat="49.30891" lon="1.32409">
        <ele>152</ele>
        <time>2016-04-29T20:01:22Z</time>
      </trkpt>
      <trkpt lat="49.30944" lon="1.32321">
        <ele>150</ele>
        <time>2016-04-29T20:03:22Z</time>
      </trkpt>
      <trkpt lat="49.31001" lon="1.32165">
        <ele>149</ele>
        <time>2016-04-29T20:05:22Z</time>
      </trkpt>
      <trkpt lat="49.31015" lon="1.3207">
        <ele>149</ele>
        <time>2016-04-29T20:07:22Z</time>
      </trkpt>
      <trkpt lat="49.31025" lon="1.31941">
        <ele>148</ele>
        <time>2016-04-29T20:09:22Z</time>
      </trkpt>
      <trkpt lat="49.3084" lon="1.31772">
        <ele>146</ele>
        <time>2016-04-29T20:11:22Z</time>
      </trkpt>
      <trkpt lat="49.30854" lon="1.31755">
        <ele>146</ele>
        <time>2016-04-29T20:13:22Z</time>
      </trkpt>
      <trkpt lat="49.30741" lon="1.3154">
        <ele>142</ele>
        <time>2016-04-29T20:15:22Z</time>
      </trkpt>
      <trkpt lat="49.30764" lon="1.31517">
        <ele>142</ele>
        <time>2016-04-29T20:17:22Z</time>
      </trkpt>
      <trkpt lat="49.30747" lon="1.31441">
        <ele>140</ele>
        <time>2016-04-29T20:19:22Z</time>
      </trkpt>
      <trkpt lat="49.30743" lon="1.31353">
        <ele>136</ele>
        <time>2016-04-29T20:21:22Z</time>
      </trkpt>
      <trkpt lat="49.3066" lon="1.31311">
        <ele>129</ele>
        <time>2016-04-29T20:23:22Z</time>
      </trkpt>
      <trkpt lat="49.30782" lon="1.3121">
        <ele>130</ele>
        <time>2016-04-29T20:25:22Z</time>
      </trkpt>
      <trkpt lat="49.30828" lon="1.3107">
        <ele>123</ele>
        <time>2016-04-29T20:27:22Z</time>
      </trkpt>
      <trkpt lat="49.30898" lon="1.30708">
        <ele>133</ele>
        <time>2016-04-29T20:29:22Z</time>
      </trkpt>
      <trkpt lat="49.30899" lon="1.30568">
        <ele>137</ele>
        <time>2016-04-29T20:31:22Z</time>
      </trkpt>
      <trkpt lat="49.30864" lon="1.30351">
        <ele>142</ele>
        <time>2016-04-29T20:33:22Z</time>
      </trkpt>
      <trkpt lat="49.3087" lon="1.30139">
        <ele>144</ele>
        <time>2016-04-29T20:35:22Z</time>
      </trkpt>
      <trkpt lat="49.30801" lon="1.29761">
        <ele>144</ele>
        <time>2016-04-29T20:37:22Z</time>
      </trkpt>
      <trkpt lat="49.30787" lon="1.29637">
        <ele>143</ele>
        <time>2016-04-29T20:39:22Z</time>
      </trkpt>
      <trkpt lat="49.30782" lon="1.29568">
        <ele>142</ele>
        <time>2016-04-29T20:41:22Z</time>
      </trkpt>
      <trkpt lat="49.3079" lon="1.29478">
        <ele>140</ele>
        <time>2016-04-29T20:43:22Z</time>
      </trkpt>
      <trkpt lat="49.30797" lon="1.29436">
        <ele>139</ele>
        <time>2016-04-29T20:45:22Z</time>
      </trkpt>
      <trkpt lat="49.30796" lon="1.29412">
        <ele>138</ele>
        <time>2016-04-29T20:47:22Z</time>
      </trkpt>
      <trkpt lat="49.30808" lon="1.29398">
        <ele>137</ele>
        <time>2016-04-29T20:49:22Z</time>
      </trkpt>
      <trkpt lat="49.30837" lon="1.2935">
        <ele>136</ele>
        <time>2016-04-29T20:51:22Z</time>
      </trkpt>
      <trkpt lat="49.30868" lon="1.29328">
        <ele>137</ele>
        <time>2016-04-29T20:53:22Z</time>
      </trkpt>
      <trkpt lat="49.30902" lon="1.29313">
        <ele>137</ele>
        <time>2016-04-29T20:55:22Z</time>
      </trkpt>
      <trkpt lat="49.3094" lon="1.29277">
        <ele>136</ele>
        <time>2016-04-29T20:57:22Z</time>
      </trkpt>
      <trkpt lat="49.30989" lon="1.29207">
        <ele>134</ele>
        <time>2016-04-29T20:59:22Z</time>
      </trkpt>
      <trkpt lat="49.30975" lon="1.29172">
        <ele>133</ele>
        <time>2016-04-29T21:01:22Z</time>
      </trkpt>
      <trkpt lat="49.30976" lon="1.29145">
        <ele>131</ele>
        <time>2016-04-29T21:03:22Z</time>
      </trkpt>
      <trkpt lat="49.31007" lon="1.29055">
        <ele>126</ele>
        <time>2016-04-29T21:05:22Z</time>
      </trkpt>
      <trkpt lat="49.31091" lon="1.28888">
        <ele>120</ele>
        <time>2016-04-29T21:07:22Z</time>
      </trkpt>
      <trkpt lat="49.31077" lon="1.28811">
        <ele>114</ele>
        <time>2016-04-29T21:09:22Z</time>
      </trkpt>
      <trkpt lat="49.31082" lon="1.28648">
        <ele>120</ele>
        <time>2016-04-29T21:11:22Z</time>
      </trkpt>
      <trkpt lat="49.31082" lon="1.28609">
        <ele>123</ele>
        <time>2016-04-29T21:13:22Z</time>
      </trkpt>
      <trkpt lat="49.30957" lon="1.28442">
        <ele>135</ele>
        <time>2016-04-29T21:15:22Z</time>
      </trkpt>
      <trkpt lat="49.31038" lon="1.28394">
        <ele>135</ele>
        <time>2016-04-29T21:17:22Z</time>
      </trkpt>
      <trkpt lat="49.31248" lon="1.28115">
        <ele>137</ele>
        <time>2016-04-29T21:19:22Z</time>
      </trkpt>
      <trkpt lat="49.31245" lon="1.28055">
        <ele>138</ele>
        <time>2016-04-29T21:21:22Z</time>
      </trkpt>
      <trkpt lat="49.31348" lon="1.27948">
        <ele>136</ele>
        <time>2016-04-29T21:23:22Z</time>
      </trkpt>
      <trkpt lat="49.31365" lon="1.27991">
        <ele>135</ele>
        <time>2016-04-29T21:25:22Z</time>
      </trkpt>
      <trkpt lat="49.31387" lon="1.27987">
        <ele>135</ele>
        <time>2016-04-29T21:27:22Z</time>
      </trkpt>
      <trkpt lat="49.31413" lon="1.28047">
        <ele>133</ele>
        <time>2016-04-29T21:29:22Z</time>
      </trkpt>
      <trkpt lat="49.31483" lon="1.2806">
        <ele>134</ele>
        <time>2016-04-29T21:31:22Z</time>
      </trkpt>
      <trkpt lat="49.31511" lon="1.27922">
        <ele>138</ele>
        <time>2016-04-29T21:33:22Z</time>
      </trkpt>
      <trkpt lat="49.31536" lon="1.27922">
        <ele>137</ele>
        <time>2016-04-29T21:35:22Z</time>
      </trkpt>
      <trkpt lat="49.3153" lon="1.27854">
        <ele>137</ele>
        <time>2016-04-29T21:37:22Z</time>
      </trkpt>
      <trkpt lat="49.31553" lon="1.27789">
        <ele>137</ele>
        <time>2016-04-29T21:39:22Z</time>
      </trkpt>
      <trkpt lat="49.3155" lon="1.27729">
        <ele>137</ele>
        <time>2016-04-29T21:41:22Z</time>
      </trkpt>
      <trkpt lat="49.3153" lon="1.27656">
        <ele>138</ele>
        <time>2016-04-29T21:43:22Z</time>
      </trkpt>
      <trkpt lat="49.31525" lon="1.27553">
        <ele>139</ele>
        <time>2016-04-29T21:45:22Z</time>
      </trkpt>
      <trkpt lat="49.31505" lon="1.27472">
        <ele>136</ele>
        <time>2016-04-29T21:47:22Z</time>
      </trkpt>
      <trkpt lat="49.31488" lon="1.27382">
        <ele>133</ele>
        <time>2016-04-29T21:49:22Z</time>
      </trkpt>
      <trkpt lat="49.31488" lon="1.27253">
        <ele>132</ele>
        <time>2016-04-29T21:51:22Z</time>
      </trkpt>
      <trkpt lat="49.31505" lon="1.27051">
        <ele>133</ele>
        <time>2016-04-29T21:53:22Z</time>
      </trkpt>
      <trkpt lat="49.31259" lon="1.27077">
        <ele>146</ele>
        <time>2016-04-29T21:55:22Z</time>
      </trkpt>
      <trkpt lat="49.31214" lon="1.27116">
        <ele>147</ele>
        <time>2016-04-29T21:57:22Z</time>
      </trkpt>
      <trkpt lat="49.31004" lon="1.26721">
        <ele>146</ele>
        <time>2016-04-29T21:59:22Z</time>
      </trkpt>
      <trkpt lat="49.31041" lon="1.26691">
        <ele>146</ele>
        <time>2016-04-29T22:01:22Z</time>
      </trkpt>
      <trkpt lat="49.31114" lon="1.26659">
        <ele>147</ele>
        <time>2016-04-29T22:03:22Z</time>
      </trkpt>
      <trkpt lat="49.3149" lon="1.26241">
        <ele>147</ele>
        <time>2016-04-29T22:05:22Z</time>
      </trkpt>
      <trkpt lat="49.31569" lon="1.26107">
        <ele>146</ele>
        <time>2016-04-29T22:07:22Z</time>
      </trkpt>
      <trkpt lat="49.31639" lon="1.26025">
        <ele>146</ele>
        <time>2016-04-29T22:09:22Z</time>
      </trkpt>
      <trkpt lat="49.3186" lon="1.25796">
        <ele>150</ele>
        <time>2016-04-29T22:11:22Z</time>
      </trkpt>
      <trkpt lat="49.31725" lon="1.25558">
        <ele>152</ele>
        <time>2016-04-29T22:13:22Z</time>
      </trkpt>
      <trkpt lat="49.31753" lon="1.25285">
        <ele>153</ele>
        <time>2016-04-29T22:15:22Z</time>
      </trkpt>
      <trkpt lat="49.31736" lon="1.25144">
        <ele>153</ele>
        <time>2016-04-29T22:17:22Z</time>
      </trkpt>
      <trkpt lat="49.31758" lon="1.24897">
        <ele>151</ele>
        <time>2016-04-29T22:19:22Z</time>
      </trkpt>
      <trkpt lat="49.31645" lon="1.24538">
        <ele>122</ele>
        <time>2016-04-29T22:21:22Z</time>
      </trkpt>
      <trkpt lat="49.31611" lon="1.24399">
        <ele>102</ele>
        <time>2016-04-29T22:23:22Z</time>
      </trkpt>
      <trkpt lat="49.31534" lon="1.2442">
        <ele>81</ele>
        <time>2016-04-29T22:25:22Z</time>
      </trkpt>
      <trkpt lat="49.31519" lon="1.24545">
        <ele>76</ele>
        <time>2016-04-29T22:27:22Z</time>
      </trkpt>
      <trkpt lat="49.31478" lon="1.24554">
        <ele>64</ele>
        <time>2016-04-29T22:29:22Z</time>
      </trkpt>
      <trkpt lat="49.31418" lon="1.24453">
        <ele>35</ele>
        <time>2016-04-29T22:31:22Z</time>
      </trkpt>
      <trkpt lat="49.31404" lon="1.2438">
        <ele>25</ele>
        <time>2016-04-29T22:33:22Z</time>
      </trkpt>
      <trkpt lat="49.31435" lon="1.24326">
        <ele>25</ele>
        <time>2016-04-29T22:35:22Z</time>
      </trkpt>
      <trkpt lat="49.31365" lon="1.24213">
        <ele>13</ele>
        <time>2016-04-29T22:37:22Z</time>
      </trkpt>
      <trkpt lat="49.31315" lon="1.24129">
        <ele>13</ele>
        <time>2016-04-29T22:39:22Z</time>
      </trkpt>
      <trkpt lat="49.31249" lon="1.24034">
        <ele>8</ele>
        <time>2016-04-29T22:41:22Z</time>
      </trkpt>
      <trkpt lat="49.31249" lon="1.23929">
        <ele>9</ele>
        <time>2016-04-29T22:43:22Z</time>
      </trkpt>
      <trkpt lat="49.31271" lon="1.23869">
        <ele>10</ele>
        <time>2016-04-29T22:45:22Z</time>
      </trkpt>
      <trkpt lat="49.31263" lon="1.23824">
        <ele>9</ele>
        <time>2016-04-29T22:47:22Z</time>
      </trkpt>
      <trkpt lat="49.31276" lon="1.23601">
        <ele>7</ele>
        <time>2016-04-29T22:49:22Z</time>
      </trkpt>
      <trkpt lat="49.31285" lon="1.23545">
        <ele>6</ele>
        <time>2016-04-29T22:51:22Z</time>
      </trkpt>
      <trkpt lat="49.31267" lon="1.23262">
        <ele>6</ele>
        <time>2016-04-29T22:53:22Z</time>
      </trkpt>
      <trkpt lat="49.31284" lon="1.23185">
        <ele>8</ele>
        <time>2016-04-29T22:55:22Z</time>
      </trkpt>
      <trkpt lat="49.31368" lon="1.23094">
        <ele>10</ele>
        <time>2016-04-29T22:57:22Z</time>
      </trkpt>
      <trkpt lat="49.31399" lon="1.23045">
        <ele>9</ele>
        <time>2016-04-29T22:59:22Z</time>
      </trkpt>
      <trkpt lat="49.31394" lon="1.23019">
        <ele>8</ele>
        <time>2016-04-29T23:01:22Z</time>
      </trkpt>
      <trkpt lat="49.31492" lon="1.2282">
        <ele>9</ele>
        <time>2016-04-29T23:03:22Z</time>
      </trkpt>
      <trkpt lat="49.31513" lon="1.2277">
        <ele>8</ele>
        <time>2016-04-29T23:05:22Z</time>
      </trkpt>
      <trkpt lat="49.31164" lon="1.22406">
        <ele>7</ele>
        <time>2016-04-29T23:07:22Z</time>
      </trkpt>
      <trkpt lat="49.31141" lon="1.22356">
        <ele>6</ele>
        <time>2016-04-29T23:09:22Z</time>
      </trkpt>
      <trkpt lat="49.31127" lon="1.22273">
        <ele>6</ele>
        <time>2016-04-29T23:11:22Z</time>
      </trkpt>
      <trkpt lat="49.31109" lon="1.22144">
        <ele>7</ele>
        <time>2016-04-29T23:13:22Z</time>
      </trkpt>
      <trkpt lat="49.31098" lon="1.21931">
        <ele>7</ele>
        <time>2016-04-29T23:15:22Z</time>
      </trkpt>
      <trkpt lat="49.31095" lon="1.21798">
        <ele>7</ele>
        <time>2016-04-29T23:17:22Z</time>
      </trkpt>
      <trkpt lat="49.31103" lon="1.21594">
        <ele>9</ele>
        <time>2016-04-29T23:19:22Z</time>
      </trkpt>
      <trkpt lat="49.31145" lon="1.21459">
        <ele>8</ele>
        <time>2016-04-29T23:21:22Z</time>
      </trkpt>
      <trkpt lat="49.31168" lon="1.21339">
        <ele>11</ele>
        <time>2016-04-29T23:23:22Z</time>
      </trkpt>
      <trkpt lat="49.31183" lon="1.21225">
        <ele>9</ele>
        <time>2016-04-29T23:25:22Z</time>
      </trkpt>
      <trkpt lat="49.31152" lon="1.21084">
        <ele>8</ele>
        <time>2016-04-29T23:27:22Z</time>
      </trkpt>
      <trkpt lat="49.31162" lon="1.21041">
        <ele>9</ele>
        <time>2016-04-29T23:29:22Z</time>
      </trkpt>
      <trkpt lat="49.31136" lon="1.21002">
        <ele>9</ele>
        <time>2016-04-29T23:31:22Z</time>
      </trkpt>
      <trkpt lat="49.31127" lon="1.20953">
        <ele>9</ele>
        <time>2016-04-29T23:33:22Z</time>
      </trkpt>
      <trkpt lat="49.31126" lon="1.20912">
        <ele>9</ele>
        <time>2016-04-29T23:35:22Z</time>
      </trkpt>
      <trkpt lat="49.31088" lon="1.20747">
        <ele>7</ele>
        <time>2016-04-29T23:37:22Z</time>
      </trkpt>
      <trkpt lat="49.31098" lon="1.20719">
        <ele>8</ele>
        <time>2016-04-29T23:39:22Z</time>
      </trkpt>
      <trkpt lat="49.31082" lon="1.2064">
        <ele>8</ele>
        <time>2016-04-29T23:41:22Z</time>
      </trkpt>
      <trkpt lat="49.31089" lon="1.20597">
        <ele>8</ele>
        <time>2016-04-29T23:43:22Z</time>
      </trkpt>
      <trkpt lat="49.31068" lon="1.20431">
        <ele>8</ele>
        <time>2016-04-29T23:45:22Z</time>
      </trkpt>
      <trkpt lat="49.31052" lon="1.20296">
        <ele>9</ele>
        <time>2016-04-29T23:47:22Z</time>
      </trkpt>
      <trkpt lat="49.31074" lon="1.20071">
        <ele>11</ele>
        <time>2016-04-29T23:49:22Z</time>
      </trkpt>
      <trkpt lat="49.31334" lon="1.20129">
        <ele>13</ele>
        <time>2016-04-29T23:51:22Z</time>
      </trkpt>
      <trkpt lat="49.31594" lon="1.20077">
        <ele>11</ele>
        <time>2016-04-29T23:53:22Z</time>
      </trkpt>
      <trkpt lat="49.31687" lon="1.2002">
        <ele>13</ele>
        <time>2016-04-29T23:55:22Z</time>
      </trkpt>
      <trkpt lat="49.32052" lon="1.20026">
        <ele>14</ele>
        <time>2016-04-29T23:57:22Z</time>
      </trkpt>
      <trkpt lat="49.32161" lon="1.19992">
        <ele>17</ele>
        <time>2016-04-29T23:59:22Z</time>
      </trkpt>
      <trkpt lat="49.32374" lon="1.19974">
        <ele>24</ele>
        <time>2016-04-30T00:01:22Z</time>
      </trkpt>
      <trkpt lat="49.32337" lon="1.19736">
        <ele>23</ele>
        <time>2016-04-30T00:03:22Z</time>
      </trkpt>
      <trkpt lat="49.3216" lon="1.1858">
        <ele>16</ele>
        <time>2016-04-30T00:05:22Z</time>
      </trkpt>
      <trkpt lat="49.32136" lon="1.18417">
        <ele>16</ele>
        <time>2016-04-30T00:07:22Z</time>
      </trkpt>
      <trkpt lat="49.32105" lon="1.18081">
        <ele>16</ele>
        <time>2016-04-30T00:09:22Z</time>
      </trkpt>
      <trkpt lat="49.32103" lon="1.1796">
        <ele>16</ele>
        <time>2016-04-30T00:11:22Z</time>
      </trkpt>
      <trkpt lat="49.3208" lon="1.17616">
        <ele>17</ele>
        <time>2016-04-30T00:13:22Z</time>
      </trkpt>
      <trkpt lat="49.32067" lon="1.17572">
        <ele>17</ele>
        <time>2016-04-30T00:15:22Z</time>
      </trkpt>
      <trkpt lat="49.32076" lon="1.17524">
        <ele>18</ele>
        <time>2016-04-30T00:17:22Z</time>
      </trkpt>
      <trkpt lat="49.3218" lon="1.17513">
        <ele>26</ele>
        <time>2016-04-30T00:19:22Z</time>
      </trkpt>
      <trkpt lat="49.3215" lon="1.17284">
        <ele>23</ele>
        <time>2016-04-30T00:21:22Z</time>
      </trkpt>
      <trkpt lat="49.32079" lon="1.16959">
        <ele>19</ele>
        <time>2016-04-30T00:23:22Z</time>
      </trkpt>
      <trkpt lat="49.32018" lon="1.16974">
        <ele>14</ele>
        <time>2016-04-30T00:25:22Z</time>
      </trkpt>
      <trkpt lat="49.32009" lon="1.16901">
        <ele>14</ele>
        <time>2016-04-30T00:27:22Z</time>
      </trkpt>
      <trkpt lat="49.31993" lon="1.16835">
        <ele>14</ele>
        <time>2016-04-30T00:29:22Z</time>
      </trkpt>
      <trkpt lat="49.31973" lon="1.16631">
        <ele>14</ele>
        <time>2016-04-30T00:31:22Z</time>
      </trkpt>
      <trkpt lat="49.31968" lon="1.16558">
        <ele>14</ele>
        <time>2016-04-30T00:33:22Z</time>
      </trkpt>
      <trkpt lat="49.31957" lon="1.16443">
        <ele>15</ele>
        <time>2016-04-30T00:35:22Z</time>
      </trkpt>
      <trkpt lat="49.31946" lon="1.16249">
        <ele>15</ele>
        <time>2016-04-30T00:37:22Z</time>
      </trkpt>
      <trkpt lat="49.31927" lon="1.16181">
        <ele>14</ele>
        <time>2016-04-30T00:39:22Z</time>
      </trkpt>
      <trkpt lat="49.31908" lon="1.1617">
        <ele>13</ele>
        <time>2016-04-30T00:41:22Z</time>
      </trkpt>
      <trkpt lat="49.31894" lon="1.15814">
        <ele>10</ele>
        <time>2016-04-30T00:43:22Z</time>
      </trkpt>
      <trkpt lat="49.31944" lon="1.15747">
        <ele>12</ele>
        <time>2016-04-30T00:45:22Z</time>
      </trkpt>
      <trkpt lat="49.31896" lon="1.15705">
        <ele>10</ele>
        <time>2016-04-30T00:47:22Z</time>
      </trkpt>
      <trkpt lat="49.3189" lon="1.15561">
        <ele>10</ele>
        <time>2016-04-30T00:49:22Z</time>
      </trkpt>
      <trkpt lat="49.31884" lon="1.15268">
        <ele>8</ele>
        <time>2016-04-30T00:51:22Z</time>
      </trkpt>
      <trkpt lat="49.3191" lon="1.15153">
        <ele>8</ele>
        <time>2016-04-30T00:53:22Z</time>
      </trkpt>
      <trkpt lat="49.31914" lon="1.15074">
        <ele>10</ele>
        <time>2016-04-30T00:55:22Z</time>
      </trkpt>
      <trkpt lat="49.32023" lon="1.15076">
        <ele>14</ele>
        <time>2016-04-30T00:57:22Z</time>
      </trkpt>
      <trkpt lat="49.32051" lon="1.15052">
        <ele>18</ele>
        <time>2016-04-30T00:59:22Z</time>
      </trkpt>
      <trkpt lat="49.32074" lon="1.15003">
        <ele>18</ele>
        <time>2016-04-30T01:01:22Z</time>
      </trkpt>
      <trkpt lat="49.32112" lon="1.14831">
        <ele>17</ele>
        <time>2016-04-30T01:03:22Z</time>
      </trkpt>
      <trkpt lat="49.3214" lon="1.14739">
        <ele>17</ele>
        <time>2016-04-30T01:05:22Z</time>
      </trkpt>
      <trkpt lat="49.32176" lon="1.14597">
        <ele>20</ele>
        <time>2016-04-30T01:07:22Z</time>
      </trkpt>
      <trkpt lat="49.32175" lon="1.14554">
        <ele>21</ele>
        <time>2016-04-30T01:09:22Z</time>
      </trkpt>
      <trkpt lat="49.32193" lon="1.14544">
        <ele>22</ele>
        <time>2016-04-30T01:11:22Z</time>
      </trkpt>
      <trkpt lat="49.32291" lon="1.14207">
        <ele>52</ele>
        <time>2016-04-30T01:13:22Z</time>
      </trkpt>
      <trkpt lat="49.32489" lon="1.13773">
        <ele>87</ele>
        <time>2016-04-30T01:15:22Z</time>
      </trkpt>
      <trkpt lat="49.3256" lon="1.13692">
        <ele>87</ele>
        <time>2016-04-30T01:17:22Z</time>
      </trkpt>
      <trkpt lat="49.32492" lon="1.13494">
        <ele>85</ele>
        <time>2016-04-30T01:19:22Z</time>
      </trkpt>
      <trkpt lat="49.32439" lon="1.13185">
        <ele>84</ele>
        <time>2016-04-30T01:21:22Z</time>
      </trkpt>
      <trkpt lat="49.32325" lon="1.12679">
        <ele>82</ele>
        <time>2016-04-30T01:23:22Z</time>
      </trkpt>
      <trkpt lat="49.32271" lon="1.12546">
        <ele>78</ele>
        <time>2016-04-30T01:25:22Z</time>
      </trkpt>
      <trkpt lat="49.32434" lon="1.12366">
        <ele>81</ele>
        <time>2016-04-30T01:27:22Z</time>
      </trkpt>
      <trkpt lat="49.32492" lon="1.11941">
        <ele>83</ele>
        <time>2016-04-30T01:29:22Z</time>
      </trkpt>
      <trkpt lat="49.324" lon="1.11447">
        <ele>74</ele>
        <time>2016-04-30T01:31:22Z</time>
      </trkpt>
      <trkpt lat="49.32599" lon="1.10911">
        <ele>49</ele>
        <time>2016-04-30T01:33:22Z</time>
      </trkpt>
      <trkpt lat="49.32719" lon="1.10692">
        <ele>31</ele>
        <time>2016-04-30T01:35:22Z</time>
      </trkpt>
      <trkpt lat="49.32747" lon="1.10589">
        <ele>19</ele>
        <time>2016-04-30T01:37:22Z</time>
      </trkpt>
      <trkpt lat="49.32845" lon="1.1064">
        <ele>14</ele>
        <time>2016-04-30T01:39:22Z</time>
      </trkpt>
      <trkpt lat="49.32906" lon="1.10582">
        <ele>7</ele>
        <time>2016-04-30T01:41:22Z</time>
      </trkpt>
      <trkpt lat="49.32871" lon="1.10512">
        <ele>8</ele>
        <time>2016-04-30T01:43:22Z</time>
      </trkpt>
      <trkpt lat="49.32881" lon="1.10469">
        <ele>8</ele>
        <time>2016-04-30T01:45:22Z</time>
      </trkpt>
      <trkpt lat="49.32975" lon="1.10443">
        <ele>8</ele>
        <time>2016-04-30T01:47:22Z</time>
      </trkpt>
      <trkpt lat="49.33113" lon="1.10452">
        <ele>6</ele>
        <time>2016-04-30T01:49:22Z</time>
      </trkpt>
      <trkpt lat="49.33113" lon="1.10376">
        <ele>7</ele>
        <time>2016-04-30T01:51:22Z</time>
      </trkpt>
      <trkpt lat="49.33126" lon="1.10334">
        <ele>7</ele>
        <time>2016-04-30T01:53:22Z</time>
      </trkpt>
      <trkpt lat="49.33134" lon="1.1022">
        <ele>8</ele>
        <time>2016-04-30T01:55:22Z</time>
      </trkpt>
      <trkpt lat="49.33092" lon="1.10179">
        <ele>8</ele>
        <time>2016-04-30T01:57:22Z</time>
      </trkpt>
      <trkpt lat="49.33067" lon="1.10138">
        <ele>7</ele>
        <time>2016-04-30T01:59:22Z</time>
      </trkpt>
      <trkpt lat="49.33168" lon="1.10065">
        <ele>7</ele>
        <time>2016-04-30T02:01:22Z</time>
      </trkpt>
      <trkpt lat="49.33197" lon="1.10067">
        <ele>7</ele>
        <time>2016-04-30T02:03:22Z</time>
      </trkpt>
      <trkpt lat="49.33215" lon="1.10037">
        <ele>7</ele>
        <time>2016-04-30T02:05:22Z</time>
      </trkpt>
      <trkpt lat="49.33243" lon="1.10048">
        <ele>7</ele>
        <time>2016-04-30T02:07:22Z</time>
      </trkpt>
      <trkpt lat="49.33343" lon="1.1002">
        <ele>7</ele>
        <time>2016-04-30T02:09:22Z</time>
      </trkpt>
      <trkpt lat="49.33624" lon="1.10211">
        <ele>7</ele>
        <time>2016-04-30T02:11:22Z</time>
      </trkpt>
      <trkpt lat="49.33666" lon="1.10218">
        <ele>9</ele>
        <time>2016-04-30T02:13:22Z</time>
      </trkpt>
      <trkpt lat="49.33998" lon="1.1019">
        <ele>7</ele>
        <time>2016-04-30T02:15:22Z</time>
      </trkpt>
      <trkpt lat="49.34087" lon="1.10138">
        <ele>10</ele>
        <time>2016-04-30T02:17:22Z</time>
      </trkpt>
      <trkpt lat="49.34106" lon="1.10147">
        <ele>10</ele>
        <time>2016-04-30T02:19:22Z</time>
      </trkpt>
      <trkpt lat="49.34102" lon="1.10108">
        <ele>10</ele>
        <time>2016-04-30T02:21:22Z</time>
      </trkpt>
      <trkpt lat="49.33942" lon="1.10158">
        <ele>4</ele>
        <time>2016-04-30T02:23:22Z</time>
      </trkpt>
      <trkpt lat="49.33857" lon="1.09625">
        <ele>8</ele>
        <time>2016-04-30T02:25:22Z</time>
      </trkpt>
      <trkpt lat="49.33854" lon="1.09471">
        <ele>6</ele>
        <time>2016-04-30T02:27:22Z</time>
      </trkpt>
      <trkpt lat="49.33847" lon="1.09407">
        <ele>6</ele>
        <time>2016-04-30T02:29:22Z</time>
      </trkpt>
      <trkpt lat="49.33807" lon="1.09282">
        <ele>6</ele>
        <time>2016-04-30T02:31:22Z</time>
      </trkpt>
      <trkpt lat="49.33748" lon="1.09192">
        <ele>6</ele>
        <time>2016-04-30T02:33:22Z</time>
      </trkpt>
      <trkpt lat="49.33701" lon="1.09098">
        <ele>3</ele>
        <time>2016-04-30T02:35:22Z</time>
      </trkpt>
      <trkpt lat="49.33666" lon="1.09027">
        <ele>4</ele>
        <time>2016-04-30T02:37:22Z</time>
      </trkpt>
      <trkpt lat="49.33639" lon="1.08995">
        <ele>4</ele>
        <time>2016-04-30T02:39:22Z</time>
      </trkpt>
      <trkpt lat="49.33593" lon="1.08801">
        <ele>3</ele>
        <time>2016-04-30T02:41:22Z</time>
      </trkpt>
      <trkpt lat="49.3358" lon="1.08728">
        <ele>5</ele>
        <time>2016-04-30T02:43:22Z</time>
      </trkpt>
      <trkpt lat="49.33599" lon="1.08533">
        <ele>10</ele>
        <time>2016-04-30T02:45:22Z</time>
      </trkpt>
      <trkpt lat="49.33624" lon="1.08267">
        <ele>11</ele>
        <time>2016-04-30T02:47:22Z</time>
      </trkpt>
      <trkpt lat="49.33611" lon="1.08059">
        <ele>10</ele>
        <time>2016-04-30T02:49:22Z</time>
      </trkpt>
      <trkpt lat="49.33579" lon="1.07799">
        <ele>9</ele>
        <time>2016-04-30T02:51:22Z</time>
      </trkpt>
      <trkpt lat="49.33529" lon="1.07615">
        <ele>10</ele>
        <time>2016-04-30T02:53:22Z</time>
      </trkpt>
      <trkpt lat="49.33551" lon="1.07561">
        <ele>12</ele>
        <time>2016-04-30T02:55:22Z</time>
      </trkpt>
      <trkpt lat="49.33537" lon="1.07535">
        <ele>11</ele>
        <time>2016-04-30T02:57:22Z</time>
      </trkpt>
      <trkpt lat="49.33639" lon="1.07392">
        <ele>26</ele>
        <time>2016-04-30T02:59:22Z</time>
      </trkpt>
      <trkpt lat="49.33728" lon="1.07233">
        <ele>34</ele>
        <time>2016-04-30T03:01:22Z</time>
      </trkpt>
      <trkpt lat="49.33703" lon="1.07091">
        <ele>38</ele>
        <time>2016-04-30T03:03:22Z</time>
      </trkpt>
      <trkpt lat="49.33705" lon="1.07006">
        <ele>39</ele>
        <time>2016-04-30T03:05:22Z</time>
      </trkpt>
      <trkpt lat="49.33677" lon="1.06889">
        <ele>42</ele>
        <time>2016-04-30T03:07:22Z</time>
      </trkpt>
      <trkpt lat="49.33675" lon="1.0667">
        <ele>50</ele>
        <time>2016-04-30T03:09:22Z</time>
      </trkpt>
      <trkpt lat="49.33655" lon="1.06497">
        <ele>59</ele>
        <time>2016-04-30T03:11:22Z</time>
      </trkpt>
      <trkpt lat="49.33621" lon="1.06353">
        <ele>70</ele>
        <time>2016-04-30T03:13:22Z</time>
      </trkpt>
      <trkpt lat="49.33572" lon="1.06139">
        <ele>81</ele>
        <time>2016-04-30T03:15:22Z</time>
      </trkpt>
      <trkpt lat="49.33544" lon="1.0601">
        <ele>87</ele>
        <time>2016-04-30T03:17:22Z</time>
      </trkpt>
      <trkpt lat="49.33526" lon="1.05885">
        <ele>93</ele>
        <time>2016-04-30T03:19:22Z</time>
      </trkpt>
      <trkpt lat="49.33512" lon="1.058">
        <ele>96</ele>
        <time>2016-04-30T03:21:22Z</time>
      </trkpt>
      <trkpt lat="49.33469" lon="1.05594">
        <ele>107</ele>
        <time>2016-04-30T03:23:22Z</time>
      </trkpt>
      <trkpt lat="49.33413" lon="1.05456">
        <ele>116</ele>
        <time>2016-04-30T03:25:22Z</time>
      </trkpt>
      <trkpt lat="49.3329" lon="1.05066">
        <ele>124</ele>
        <time>2016-04-30T03:27:22Z</time>
      </trkpt>
      <trkpt lat="49.33323" lon="1.04722">
        <ele>127</ele>
        <time>2016-04-30T03:29:22Z</time>
      </trkpt>
      <trkpt lat="49.33242" lon="1.04495">
        <ele>127</ele>
        <time>2016-04-30T03:31:22Z</time>
      </trkpt>
      <trkpt lat="49.3325" lon="1.04336">
        <ele>132</ele>
        <time>2016-04-30T03:33:22Z</time>
      </trkpt>
      <trkpt lat="49.33242" lon="1.04199">
        <ele>130</ele>
        <time>2016-04-30T03:35:22Z</time>
      </trkpt>
      <trkpt lat="49.33242" lon="1.04074">
        <ele>130</ele>
        <time>2016-04-30T03:37:22Z</time>
      </trkpt>
      <trkpt lat="49.33222" lon="1.03894">
        <ele>127</ele>
        <time>2016-04-30T03:39:22Z</time>
      </trkpt>
      <trkpt lat="49.3318" lon="1.03787">
        <ele>125</ele>
        <time>2016-04-30T03:41:22Z</time>
      </trkpt>
      <trkpt lat="49.33158" lon="1.03654">
        <ele>122</ele>
        <time>2016-04-30T03:43:22Z</time>
      </trkpt>
      <trkpt lat="49.33018" lon="1.03353">
        <ele>123</ele>
        <time>2016-04-30T03:45:22Z</time>
      </trkpt>
      <trkpt lat="49.33147" lon="1.02482">
        <ele>126</ele>
        <time>2016-04-30T03:47:22Z</time>
      </trkpt>
      <trkpt lat="49.32895" lon="1.01693">
        <ele>134</ele>
        <time>2016-04-30T03:49:22Z</time>
      </trkpt>
      <trkpt lat="49.33015" lon="1.01418">
        <ele>130</ele>
        <time>2016-04-30T03:51:22Z</time>
      </trkpt>
      <trkpt lat="49.33077" lon="1.01366">
        <ele>130</ele>
        <time>2016-04-30T03:53:22Z</time>
      </trkpt>
      <trkpt lat="49.33133" lon="1.01358">
        <ele>130</ele>
        <time>2016-04-30T03:55:22Z</time>
      </trkpt>
      <trkpt lat="49.33183" lon="1.01263">
        <ele>131</ele>
        <time>2016-04-30T03:57:22Z</time>
      </trkpt>
      <trkpt lat="49.33214" lon="1.01139">
        <ele>132</ele>
        <time>2016-04-30T03:59:22Z</time>
      </trkpt>
      <trkpt lat="49.33267" lon="1.01043">
        <ele>133</ele>
        <time>2016-04-30T04:01:22Z</time>
      </trkpt>
      <trkpt lat="49.33295" lon="1.00886">
        <ele>137</ele>
        <time>2016-04-30T04:03:22Z</time>
      </trkpt>
      <trkpt lat="49.33418" lon="1.00903">
        <ele>141</ele>
        <time>2016-04-30T04:05:22Z</time>
      </trkpt>
      <trkpt lat="49.33583" lon="1.01032">
        <ele>143</ele>
        <time>2016-04-30T04:07:22Z</time>
      </trkpt>
      <trkpt lat="49.33639" lon="1.00907">
        <ele>139</ele>
        <time>2016-04-30T04:09:22Z</time>
      </trkpt>
      <trkpt lat="49.33698" lon="1.00933">
        <ele>135</ele>
        <time>2016-04-30T04:11:22Z</time>
      </trkpt>
      <trkpt lat="49.33697" lon="1.00809">
        <ele>135</ele>
        <time>2016-04-30T04:13:22Z</time>
      </trkpt>
      <trkpt lat="49.33723" lon="1.00483">
        <ele>135</ele>
        <time>2016-04-30T04:15:22Z</time>
      </trkpt>
      <trkpt lat="49.33642" lon="1.00278">
        <ele>132</ele>
        <time>2016-04-30T04:17:22Z</time>
      </trkpt>
      <trkpt lat="49.33646" lon="1.00212">
        <ele>131</ele>
        <time>2016-04-30T04:19:22Z</time>
      </trkpt>
      <trkpt lat="49.33707" lon="1.00041">
        <ele>134</ele>
        <time>2016-04-30T04:21:22Z</time>
      </trkpt>
      <trkpt lat="49.33712" lon="0.99969">
        <ele>135</ele>
        <time>2016-04-30T04:23:22Z</time>
      </trkpt>
      <trkpt lat="49.33666" lon="0.99858">
        <ele>135</ele>
        <time>2016-04-30T04:25:22Z</time>
      </trkpt>
      <trkpt lat="49.33707" lon="0.99836">
        <ele>136</ele>
        <time>2016-04-30T04:27:22Z</time>
      </trkpt>
      <trkpt lat="49.33713" lon="0.99782">
        <ele>138</ele>
        <time>2016-04-30T04:29:22Z</time>
      </trkpt>
      <trkpt lat="49.33698" lon="0.99716">
        <ele>140</ele>
        <time>2016-04-30T04:31:22Z</time>
      </trkpt>
      <trkpt lat="49.33785" lon="0.9963">
        <ele>145</ele>
        <time>2016-04-30T04:33:22Z</time>
      </trkpt>
      <trkpt lat="49.33818" lon="0.99276">
        <ele>142</ele>
        <time>2016-04-30T04:35:22Z</time>
      </trkpt>
      <trkpt lat="49.33819" lon="0.99068">
        <ele>141</ele>
        <time>2016-04-30T04:37:22Z</time>
      </trkpt>
      <trkpt lat="49.33808" lon="0.98946">
        <ele>138</ele>
        <time>2016-04-30T04:39:22Z</time>
      </trkpt>
      <trkpt lat="49.33765" lon="0.98882">
        <ele>141</ele>
        <time>2016-04-30T04:41:22Z</time>
      </trkpt>
      <trkpt lat="49.33727" lon="0.98787">
        <ele>141</ele>
        <time>2016-04-30T04:43:22Z</time>
      </trkpt>
      <trkpt lat="49.33696" lon="0.98649">
        <ele>136</ele>
        <time>2016-04-30T04:45:22Z</time>
      </trkpt>
      <trkpt lat="49.33632" lon="0.98463">
        <ele>124</ele>
        <time>2016-04-30T04:47:22Z</time>
      </trkpt>
      <trkpt lat="49.3363" lon="0.9841">
        <ele>121</ele>
        <time>2016-04-30T04:49:22Z</time>
      </trkpt>
      <trkpt lat="49.33593" lon="0.98379">
        <ele>116</ele>
        <time>2016-04-30T04:51:22Z</time>
      </trkpt>
      <trkpt lat="49.33587" lon="0.98275">
        <ele>119</ele>
        <time>2016-04-30T04:53:22Z</time>
      </trkpt>
      <trkpt lat="49.33538" lon="0.98205">
        <ele>116</ele>
        <time>2016-04-30T04:55:22Z</time>
      </trkpt>
      <trkpt lat="49.33526" lon="0.98073">
        <ele>117</ele>
        <time>2016-04-30T04:57:22Z</time>
      </trkpt>
      <trkpt lat="49.33619" lon="0.97982">
        <ele>128</ele>
        <time>2016-04-30T04:59:22Z</time>
      </trkpt>
      <trkpt lat="49.33586" lon="0.97875">
        <ele>119</ele>
        <time>2016-04-30T05:01:22Z</time>
      </trkpt>
      <trkpt lat="49.3362" lon="0.97813">
        <ele>115</ele>
        <time>2016-04-30T05:03:22Z</time>
      </trkpt>
      <trkpt lat="49.3375" lon="0.97813">
        <ele>114</ele>
        <time>2016-04-30T05:05:22Z</time>
      </trkpt>
      <trkpt lat="49.3378" lon="0.97701">
        <ele>115</ele>
        <time>2016-04-30T05:07:22Z</time>
      </trkpt>
      <trkpt lat="49.33733" lon="0.97635">
        <ele>112</ele>
        <time>2016-04-30T05:09:22Z</time>
      </trkpt>
      <trkpt lat="49.33733" lon="0.97581">
        <ele>112</ele>
        <time>2016-04-30T05:11:22Z</time>
      </trkpt>
      <trkpt lat="49.33779" lon="0.97555">
        <ele>119</ele>
        <time>2016-04-30T05:13:22Z</time>
      </trkpt>
      <trkpt lat="49.33779" lon="0.97416">
        <ele>123</ele>
        <time>2016-04-30T05:15:22Z</time>
      </trkpt>
      <trkpt lat="49.33769" lon="0.97255">
        <ele>121</ele>
        <time>2016-04-30T05:17:22Z</time>
      </trkpt>
      <trkpt lat="49.33769" lon="0.97139">
        <ele>119</ele>
        <time>2016-04-30T05:19:22Z</time>
      </trkpt>
      <trkpt lat="49.33748" lon="0.97058">
        <ele>115</ele>
        <time>2016-04-30T05:21:22Z</time>
      </trkpt>
      <trkpt lat="49.33741" lon="0.96955">
        <ele>108</ele>
        <time>2016-04-30T05:23:22Z</time>
      </trkpt>
      <trkpt lat="49.33759" lon="0.96871">
        <ele>108</ele>
        <time>2016-04-30T05:25:22Z</time>
      </trkpt>
      <trkpt lat="49.33804" lon="0.96753">
        <ele>108</ele>
        <time>2016-04-30T05:27:22Z</time>
      </trkpt>
      <trkpt lat="49.33817" lon="0.96703">
        <ele>108</ele>
        <time>2016-04-30T05:29:22Z</time>
      </trkpt>
      <trkpt lat="49.33809" lon="0.96574">
        <ele>109</ele>
        <time>2016-04-30T05:31:22Z</time>
      </trkpt>
      <trkpt lat="49.33791" lon="0.96551">
        <ele>107</ele>
        <time>2016-04-30T05:33:22Z</time>
      </trkpt>
      <trkpt lat="49.33798" lon="0.96519">
        <ele>108</ele>
        <time>2016-04-30T05:35:22Z</time>
      </trkpt>
      <trkpt lat="49.3379" lon="0.96493">
        <ele>107</ele>
        <time>2016-04-30T05:37:22Z</time>
      </trkpt>
      <trkpt lat="49.33764" lon="0.96508">
        <ele>103</ele>
        <time>2016-04-30T05:39:22Z</time>
      </trkpt>
      <trkpt lat="49.33755" lon="0.96433">
        <ele>102</ele>
        <time>2016-04-30T05:41:22Z</time>
      </trkpt>
      <trkpt lat="49.33879" lon="0.96292">
        <ele>96</ele>
        <time>2016-04-30T05:43:22Z</time>
      </trkpt>
      <trkpt lat="49.33818" lon="0.96307">
        <ele>97</ele>
        <time>2016-04-30T05:45:22Z</time>
      </trkpt>
      <trkpt lat="49.33969" lon="0.96204">
        <ele>85</ele>
        <time>2016-04-30T05:47:22Z</time>
      </trkpt>
      <trkpt lat="49.34024" lon="0.9606">
        <ele>75</ele>
        <time>2016-04-30T05:49:22Z</time>
      </trkpt>
      <trkpt lat="49.34093" lon="0.9591">
        <ele>56</ele>
        <time>2016-04-30T05:51:22Z</time>
      </trkpt>
      <trkpt lat="49.3411" lon="0.95841">
        <ele>52</ele>
        <time>2016-04-30T05:53:22Z</time>
      </trkpt>
      <trkpt lat="49.3417" lon="0.9577">
        <ele>36</ele>
        <time>2016-04-30T05:55:22Z</time>
      </trkpt>
      <trkpt lat="49.34215" lon="0.958">
        <ele>19</ele>
        <time>2016-04-30T05:57:22Z</time>
      </trkpt>
      <trkpt lat="49.34243" lon="0.95573">
        <ele>14</ele>
        <time>2016-04-30T05:59:22Z</time>
      </trkpt>
      <trkpt lat="49.3424" lon="0.95517">
        <ele>16</ele>
        <time>2016-04-30T06:01:22Z</time>
      </trkpt>
      <trkpt lat="49.34285" lon="0.95491">
        <ele>9</ele>
        <time>2016-04-30T06:03:22Z</time>
      </trkpt>
      <trkpt lat="49.34347" lon="0.95547">
        <ele>5</ele>
        <time>2016-04-30T06:05:22Z</time>
      </trkpt>
      <trkpt lat="49.34411" lon="0.95573">
        <ele>5</ele>
        <time>2016-04-30T06:07:22Z</time>
      </trkpt>
      <trkpt lat="49.34386" lon="0.95401">
        <ele>8</ele>
        <time>2016-04-30T06:09:22Z</time>
      </trkpt>
      <trkpt lat="49.34525" lon="0.94817">
        <ele>7</ele>
        <time>2016-04-30T06:11:22Z</time>
      </trkpt>
      <trkpt lat="49.34562" lon="0.94822">
        <ele>9</ele>
        <time>2016-04-30T06:13:22Z</time>
      </trkpt>
      <trkpt lat="49.34665" lon="0.94363">
        <ele>9</ele>
        <time>2016-04-30T06:15:22Z</time>
      </trkpt>
      <trkpt lat="49.34769" lon="0.93916">
        <ele>14</ele>
        <time>2016-04-30T06:17:22Z</time>
      </trkpt>
      <trkpt lat="49.34867" lon="0.93959">
        <ele>11</ele>
        <time>2016-04-30T06:19:22Z</time>
      </trkpt>
      <trkpt lat="49.34992" lon="0.93968">
        <ele>8</ele>
        <time>2016-04-30T06:21:22Z</time>
      </trkpt>
      <trkpt lat="49.35026" lon="0.93659">
        <ele>3</ele>
        <time>2016-04-30T06:23:22Z</time>
      </trkpt>
      <trkpt lat="49.35062" lon="0.93594">
        <ele>3</ele>
        <time>2016-04-30T06:25:22Z</time>
      </trkpt>
      <trkpt lat="49.35113" lon="0.93363">
        <ele>3</ele>
        <time>2016-04-30T06:27:22Z</time>
      </trkpt>
      <trkpt lat="49.35023" lon="0.93251">
        <ele>17</ele>
        <time>2016-04-30T06:29:22Z</time>
      </trkpt>
      <trkpt lat="49.35059" lon="0.93193">
        <ele>13</ele>
        <time>2016-04-30T06:31:22Z</time>
      </trkpt>
      <trkpt lat="49.35009" lon="0.93189">
        <ele>24</ele>
        <time>2016-04-30T06:33:22Z</time>
      </trkpt>
      <trkpt lat="49.34907" lon="0.93399">
        <ele>31</ele>
        <time>2016-04-30T06:35:22Z</time>
      </trkpt>
      <trkpt lat="49.34846" lon="0.93455">
        <ele>33</ele>
        <time>2016-04-30T06:37:22Z</time>
      </trkpt>
      <trkpt lat="49.3483" lon="0.93554">
        <ele>32</ele>
        <time>2016-04-30T06:39:22Z</time>
      </trkpt>
      <trkpt lat="49.34754" lon="0.93678">
        <ele>40</ele>
        <time>2016-04-30T06:41:22Z</time>
      </trkpt>
      <trkpt lat="49.34627" lon="0.93727">
        <ele>59</ele>
        <time>2016-04-30T06:43:22Z</time>
      </trkpt>
      <trkpt lat="49.34596" lon="0.93686">
        <ele>65</ele>
        <time>2016-04-30T06:45:22Z</time>
      </trkpt>
      <trkpt lat="49.34624" lon="0.93618">
        <ele>69</ele>
        <time>2016-04-30T06:47:22Z</time>
      </trkpt>
      <trkpt lat="49.34723" lon="0.93635">
        <ele>54</ele>
        <time>2016-04-30T06:49:22Z</time>
      </trkpt>
      <trkpt lat="49.34773" lon="0.93539">
        <ele>58</ele>
        <time>2016-04-30T06:51:22Z</time>
      </trkpt>
      <trkpt lat="49.34648" lon="0.93294">
        <ele>99</ele>
        <time>2016-04-30T06:53:22Z</time>
      </trkpt>
      <trkpt lat="49.34665" lon="0.9323">
        <ele>99</ele>
        <time>2016-04-30T06:55:22Z</time>
      </trkpt>
      <trkpt lat="49.34716" lon="0.93165">
        <ele>99</ele>
        <time>2016-04-30T06:57:22Z</time>
      </trkpt>
      <trkpt lat="49.34776" lon="0.93148">
        <ele>91</ele>
        <time>2016-04-30T06:59:22Z</time>
      </trkpt>
      <trkpt lat="49.34827" lon="0.93174">
        <ele>83</ele>
        <time>2016-04-30T07:01:22Z</time>
      </trkpt>
      <trkpt lat="49.34839" lon="0.93139">
        <ele>82</ele>
        <time>2016-04-30T07:03:22Z</time>
      </trkpt>
      <trkpt lat="49.34799" lon="0.93069">
        <ele>96</ele>
        <time>2016-04-30T07:05:22Z</time>
      </trkpt>
      <trkpt lat="49.34791" lon="0.92996">
        <ele>106</ele>
        <time>2016-04-30T07:07:22Z</time>
      </trkpt>
      <trkpt lat="49.3482" lon="0.9291">
        <ele>115</ele>
        <time>2016-04-30T07:09:22Z</time>
      </trkpt>
      <trkpt lat="49.34967" lon="0.92749">
        <ele>117</ele>
        <time>2016-04-30T07:11:22Z</time>
      </trkpt>
      <trkpt lat="49.34983" lon="0.92642">
        <ele>122</ele>
        <time>2016-04-30T07:13:22Z</time>
      </trkpt>
      <trkpt lat="49.34974" lon="0.92564">
        <ele>128</ele>
        <time>2016-04-30T07:15:22Z</time>
      </trkpt>
      <trkpt lat="49.34988" lon="0.92457">
        <ele>132</ele>
        <time>2016-04-30T07:17:22Z</time>
      </trkpt>
      <trkpt lat="49.34992" lon="0.92346">
        <ele>133</ele>
        <time>2016-04-30T07:19:22Z</time>
      </trkpt>
      <trkpt lat="49.35047" lon="0.92367">
        <ele>129</ele>
        <time>2016-04-30T07:21:22Z</time>
      </trkpt>
      <trkpt lat="49.35113" lon="0.92333">
        <ele>129</ele>
        <time>2016-04-30T07:23:22Z</time>
      </trkpt>
      <trkpt lat="49.35324" lon="0.9208">
        <ele>133</ele>
        <time>2016-04-30T07:25:22Z</time>
      </trkpt>
      <trkpt lat="49.35409" lon="0.91595">
        <ele>133</ele>
        <time>2016-04-30T07:27:22Z</time>
      </trkpt>
      <trkpt lat="49.35497" lon="0.91524">
        <ele>132</ele>
        <time>2016-04-30T07:29:22Z</time>
      </trkpt>
      <trkpt lat="49.35609" lon="0.91382">
        <ele>132</ele>
        <time>2016-04-30T07:31:22Z</time>
      </trkpt>
      <trkpt lat="49.35652" lon="0.91341">
        <ele>132</ele>
        <time>2016-04-30T07:33:22Z</time>
      </trkpt>
      <trkpt lat="49.35818" lon="0.91163">
        <ele>136</ele>
        <time>2016-04-30T07:35:22Z</time>
      </trkpt>
      <trkpt lat="49.35919" lon="0.91103">
        <ele>141</ele>
        <time>2016-04-30T07:37:22Z</time>
      </trkpt>
      <trkpt lat="49.36197" lon="0.91">
        <ele>134</ele>
        <time>2016-04-30T07:39:22Z</time>
      </trkpt>
      <trkpt lat="49.36264" lon="0.90979">
        <ele>135</ele>
        <time>2016-04-30T07:41:22Z</time>
      </trkpt>
      <trkpt lat="49.36345" lon="0.90861">
        <ele>138</ele>
        <time>2016-04-30T07:43:22Z</time>
      </trkpt>
      <trkpt lat="49.36424" lon="0.90807">
        <ele>136</ele>
        <time>2016-04-30T07:45:22Z</time>
      </trkpt>
      <trkpt lat="49.36465" lon="0.90741">
        <ele>137</ele>
        <time>2016-04-30T07:47:22Z</time>
      </trkpt>
      <trkpt lat="49.36562" lon="0.90693">
        <ele>133</ele>
        <time>2016-04-30T07:49:22Z</time>
      </trkpt>
      <trkpt lat="49.36559" lon="0.90635">
        <ele>133</ele>
        <time>2016-04-30T07:51:22Z</time>
      </trkpt>
      <trkpt lat="49.36674" lon="0.90618">
        <ele>128</ele>
        <time>2016-04-30T07:53:22Z</time>
      </trkpt>
      <trkpt lat="49.36713" lon="0.90382">
        <ele>122</ele>
        <time>2016-04-30T07:55:22Z</time>
      </trkpt>
      <trkpt lat="49.36735" lon="0.90365">
        <ele>119</ele>
        <time>2016-04-30T07:57:22Z</time>
      </trkpt>
      <trkpt lat="49.3673" lon="0.90303">
        <ele>119</ele>
        <time>2016-04-30T07:59:22Z</time>
      </trkpt>
      <trkpt lat="49.36826" lon="0.90406">
        <ele>127</ele>
        <time>2016-04-30T08:01:22Z</time>
      </trkpt>
      <trkpt lat="49.36853" lon="0.90417">
        <ele>129</ele>
        <time>2016-04-30T08:03:22Z</time>
      </trkpt>
      <trkpt lat="49.36899" lon="0.9032">
        <ele>134</ele>
        <time>2016-04-30T08:05:22Z</time>
      </trkpt>
      <trkpt lat="49.36936" lon="0.90271">
        <ele>133</ele>
        <time>2016-04-30T08:07:22Z</time>
      </trkpt>
      <trkpt lat="49.36963" lon="0.90211">
        <ele>132</ele>
        <time>2016-04-30T08:09:22Z</time>
      </trkpt>
      <trkpt lat="49.37003" lon="0.89947">
        <ele>133</ele>
        <time>2016-04-30T08:11:22Z</time>
      </trkpt>
      <trkpt lat="49.37024" lon="0.89904">
        <ele>134</ele>
        <time>2016-04-30T08:13:22Z</time>
      </trkpt>
      <trkpt lat="49.37061" lon="0.89807">
        <ele>132</ele>
        <time>2016-04-30T08:15:22Z</time>
      </trkpt>
      <trkpt lat="49.36982" lon="0.89711">
        <ele>126</ele>
        <time>2016-04-30T08:17:22Z</time>
      </trkpt>
      <trkpt lat="49.36939" lon="0.89698">
        <ele>126</ele>
        <time>2016-04-30T08:19:22Z</time>
      </trkpt>
      <trkpt lat="49.3689" lon="0.89539">
        <ele>126</ele>
        <time>2016-04-30T08:21:22Z</time>
      </trkpt>
      <trkpt lat="49.36885" lon="0.89477">
        <ele>124</ele>
        <time>2016-04-30T08:23:22Z</time>
      </trkpt>
      <trkpt lat="49.36939" lon="0.89442">
        <ele>119</ele>
        <time>2016-04-30T08:25:22Z</time>
      </trkpt>
      <trkpt lat="49.37002" lon="0.8947">
        <ele>114</ele>
        <time>2016-04-30T08:27:22Z</time>
      </trkpt>
      <trkpt lat="49.36973" lon="0.89329">
        <ele>107</ele>
        <time>2016-04-30T08:29:22Z</time>
      </trkpt>
      <trkpt lat="49.36969" lon="0.89198">
        <ele>101</ele>
        <time>2016-04-30T08:31:22Z</time>
      </trkpt>
      <trkpt lat="49.37008" lon="0.89129">
        <ele>92</ele>
        <time>2016-04-30T08:33:22Z</time>
      </trkpt>
      <trkpt lat="49.37048" lon="0.89009">
        <ele>81</ele>
        <time>2016-04-30T08:35:22Z</time>
      </trkpt>
      <trkpt lat="49.37054" lon="0.88977">
        <ele>78</ele>
        <time>2016-04-30T08:37:22Z</time>
      </trkpt>
      <trkpt lat="49.37132" lon="0.88925">
        <ele>62</ele>
        <time>2016-04-30T08:39:22Z</time>
      </trkpt>
      <trkpt lat="49.37281" lon="0.88938">
        <ele>57</ele>
        <time>2016-04-30T08:41:22Z</time>
      </trkpt>
      <trkpt lat="49.37315" lon="0.89002">
        <ele>65</ele>
        <time>2016-04-30T08:43:22Z</time>
      </trkpt>
      <trkpt lat="49.37346" lon="0.89015">
        <ele>69</ele>
        <time>2016-04-30T08:45:22Z</time>
      </trkpt>
      <trkpt lat="49.37356" lon="0.88968">
        <ele>72</ele>
        <time>2016-04-30T08:47:22Z</time>
      </trkpt>
      <trkpt lat="49.37389" lon="0.88865">
        <ele>78</ele>
        <time>2016-04-30T08:49:22Z</time>
      </trkpt>
      <trkpt lat="49.37411" lon="0.88822">
        <ele>81</ele>
        <time>2016-04-30T08:51:22Z</time>
      </trkpt>
      <trkpt lat="49.37465" lon="0.88801">
        <ele>92</ele>
        <time>2016-04-30T08:53:22Z</time>
      </trkpt>
      <trkpt lat="49.37561" lon="0.88723">
        <ele>110</ele>
        <time>2016-04-30T08:55:22Z</time>
      </trkpt>
      <trkpt lat="49.37645" lon="0.88513">
        <ele>123</ele>
        <time>2016-04-30T08:57:22Z</time>
      </trkpt>
      <trkpt lat="49.37656" lon="0.88453">
        <ele>124</ele>
        <time>2016-04-30T08:59:22Z</time>
      </trkpt>
      <trkpt lat="49.3768" lon="0.88487">
        <ele>128</ele>
        <time>2016-04-30T09:01:22Z</time>
      </trkpt>
      <trkpt lat="49.37864" lon="0.88642">
        <ele>127</ele>
        <time>2016-04-30T09:03:22Z</time>
      </trkpt>
      <trkpt lat="49.38018" lon="0.88586">
        <ele>123</ele>
        <time>2016-04-30T09:05:22Z</time>
      </trkpt>
      <trkpt lat="49.38044" lon="0.88586">
        <ele>124</ele>
        <time>2016-04-30T09:07:22Z</time>
      </trkpt>
      <trkpt lat="49.38064" lon="0.8861">
        <ele>124</ele>
        <time>2016-04-30T09:09:22Z</time>
      </trkpt>
      <trkpt lat="49.38155" lon="0.88625">
        <ele>125</ele>
        <time>2016-04-30T09:11:22Z</time>
      </trkpt>
      <trkpt lat="49.38205" lon="0.88631">
        <ele>126</ele>
        <time>2016-04-30T09:13:22Z</time>
      </trkpt>
      <trkpt lat="49.38325" lon="0.88578">
        <ele>125</ele>
        <time>2016-04-30T09:15:22Z</time>
      </trkpt>
      <trkpt lat="49.38428" lon="0.88479">
        <ele>126</ele>
        <time>2016-04-30T09:17:22Z</time>
      </trkpt>
      <trkpt lat="49.38486" lon="0.88357">
        <ele>127</ele>
        <time>2016-04-30T09:19:22Z</time>
      </trkpt>
      <trkpt lat="49.38521" lon="0.88365">
        <ele>128</ele>
        <time>2016-04-30T09:21:22Z</time>
      </trkpt>
      <trkpt lat="49.38575" lon="0.88447">
        <ele>127</ele>
        <time>2016-04-30T09:23:22Z</time>
      </trkpt>
      <trkpt lat="49.38764" lon="0.88558">
        <ele>102</ele>
        <time>2016-04-30T09:25:22Z</time>
      </trkpt>
      <trkpt lat="49.38853" lon="0.88539">
        <ele>103</ele>
        <time>2016-04-30T09:27:22Z</time>
      </trkpt>
      <trkpt lat="49.38891" lon="0.8849">
        <ele>108</ele>
        <time>2016-04-30T09:29:22Z</time>
      </trkpt>
      <trkpt lat="49.39012" lon="0.88509">
        <ele>108</ele>
        <time>2016-04-30T09:31:22Z</time>
      </trkpt>
      <trkpt lat="49.39086" lon="0.88472">
        <ele>107</ele>
        <time>2016-04-30T09:33:22Z</time>
      </trkpt>
      <trkpt lat="49.39173" lon="0.88453">
        <ele>104</ele>
        <time>2016-04-30T09:35:22Z</time>
      </trkpt>
      <trkpt lat="49.39254" lon="0.88453">
        <ele>100</ele>
        <time>2016-04-30T09:37:22Z</time>
      </trkpt>
      <trkpt lat="49.39341" lon="0.88414">
        <ele>104</ele>
        <time>2016-04-30T09:39:22Z</time>
      </trkpt>
      <trkpt lat="49.39599" lon="0.88472">
        <ele>101</ele>
        <time>2016-04-30T09:41:22Z</time>
      </trkpt>
      <trkpt lat="49.39621" lon="0.8852">
        <ele>99</ele>
        <time>2016-04-30T09:43:22Z</time>
      </trkpt>
      <trkpt lat="49.39704" lon="0.88434">
        <ele>93</ele>
        <time>2016-04-30T09:45:22Z</time>
      </trkpt>
      <trkpt lat="49.39726" lon="0.88384">
        <ele>82</ele>
        <time>2016-04-30T09:47:22Z</time>
      </trkpt>
      <trkpt lat="49.39729" lon="0.88284">
        <ele>68</ele>
        <time>2016-04-30T09:49:22Z</time>
      </trkpt>
      <trkpt lat="49.39778" lon="0.88352">
        <ele>62</ele>
        <time>2016-04-30T09:51:22Z</time>
      </trkpt>
      <trkpt lat="49.39655" lon="0.87981">
        <ele>52</ele>
        <time>2016-04-30T09:53:22Z</time>
      </trkpt>
      <trkpt lat="49.39622" lon="0.87934">
        <ele>54</ele>
        <time>2016-04-30T09:55:22Z</time>
      </trkpt>
      <trkpt lat="49.3964" lon="0.87934">
        <ele>50</ele>
        <time>2016-04-30T09:57:22Z</time>
      </trkpt>
      <trkpt lat="49.39676" lon="0.87962">
        <ele>46</ele>
        <time>2016-04-30T09:59:22Z</time>
      </trkpt>
      <trkpt lat="49.3973" lon="0.8802">
        <ele>43</ele>
        <time>2016-04-30T10:01:22Z</time>
      </trkpt>
      <trkpt lat="49.39807" lon="0.88056">
        <ele>33</ele>
        <time>2016-04-30T10:03:22Z</time>
      </trkpt>
      <trkpt lat="49.39913" lon="0.87964">
        <ele>18</ele>
        <time>2016-04-30T10:05:22Z</time>
      </trkpt>
      <trkpt lat="49.39956" lon="0.8805">
        <ele>17</ele>
        <time>2016-04-30T10:07:22Z</time>
      </trkpt>
      <trkpt lat="49.40007" lon="0.88131">
        <ele>15</ele>
        <time>2016-04-30T10:09:22Z</time>
      </trkpt>
      <trkpt lat="49.40177" lon="0.87951">
        <ele>6</ele>
        <time>2016-04-30T10:11:22Z</time>
      </trkpt>
      <trkpt lat="49.40211" lon="0.87947">
        <ele>6</ele>
        <time>2016-04-30T10:13:22Z</time>
      </trkpt>
      <trkpt lat="49.40266" lon="0.88011">
        <ele>4</ele>
        <time>2016-04-30T10:15:22Z</time>
      </trkpt>
      <trkpt lat="49.40377" lon="0.87906">
        <ele>3</ele>
        <time>2016-04-30T10:17:22Z</time>
      </trkpt>
      <trkpt lat="49.40424" lon="0.87809">
        <ele>3</ele>
        <time>2016-04-30T10:19:22Z</time>
      </trkpt>
      <trkpt lat="49.40466" lon="0.87775">
        <ele>3</ele>
        <time>2016-04-30T10:21:22Z</time>
      </trkpt>
      <trkpt lat="49.40522" lon="0.87751">
        <ele>3</ele>
        <time>2016-04-30T10:23:22Z</time>
      </trkpt>
      <trkpt lat="49.40641" lon="0.87625">
        <ele>3</ele>
        <time>2016-04-30T10:25:22Z</time>
      </trkpt>
      <trkpt lat="49.40861" lon="0.87507">
        <ele>4</ele>
        <time>2016-04-30T10:27:22Z</time>
      </trkpt>
      <trkpt lat="49.41048" lon="0.8747">
        <ele>2</ele>
        <time>2016-04-30T10:29:22Z</time>
      </trkpt>
      <trkpt lat="49.41362" lon="0.87312">
        <ele>4</ele>
        <time>2016-04-30T10:31:22Z</time>
      </trkpt>
      <trkpt lat="49.41378" lon="0.87251">
        <ele>4</ele>
        <time>2016-04-30T10:33:22Z</time>
      </trkpt>
      <trkpt lat="49.41354" lon="0.87123">
        <ele>3</ele>
        <time>2016-04-30T10:35:22Z</time>
      </trkpt>
      <trkpt lat="49.41334" lon="0.86717">
        <ele>1</ele>
        <time>2016-04-30T10:37:22Z</time>
      </trkpt>
      <trkpt lat="49.41322" lon="0.86644">
        <ele>2</ele>
        <time>2016-04-30T10:39:22Z</time>
      </trkpt>
      <trkpt lat="49.41281" lon="0.86515">
        <ele>4</ele>
        <time>2016-04-30T10:41:22Z</time>
      </trkpt>
      <trkpt lat="49.41209" lon="0.86237">
        <ele>4</ele>
        <time>2016-04-30T10:43:22Z</time>
      </trkpt>
      <trkpt lat="49.412" lon="0.85928">
        <ele>3</ele>
        <time>2016-04-30T10:45:22Z</time>
      </trkpt>
      <trkpt lat="49.41207" lon="0.85816">
        <ele>6</ele>
        <time>2016-04-30T10:47:22Z</time>
      </trkpt>
      <trkpt lat="49.41241" lon="0.85608">
        <ele>13</ele>
        <time>2016-04-30T10:49:22Z</time>
      </trkpt>
      <trkpt lat="49.41228" lon="0.85464">
        <ele>18</ele>
        <time>2016-04-30T10:51:22Z</time>
      </trkpt>
      <trkpt lat="49.41265" lon="0.85395">
        <ele>21</ele>
        <time>2016-04-30T10:53:22Z</time>
      </trkpt>
      <trkpt lat="49.41103" lon="0.85174">
        <ele>19</ele>
        <time>2016-04-30T10:55:22Z</time>
      </trkpt>
      <trkpt lat="49.4105" lon="0.85065">
        <ele>17</ele>
        <time>2016-04-30T10:57:22Z</time>
      </trkpt>
      <trkpt lat="49.41025" lon="0.85046">
        <ele>16</ele>
        <time>2016-04-30T10:59:22Z</time>
      </trkpt>
      <trkpt lat="49.41182" lon="0.84642">
        <ele>13</ele>
        <time>2016-04-30T11:01:22Z</time>
      </trkpt>
      <trkpt lat="49.41157" lon="0.84623">
        <ele>13</ele>
        <time>2016-04-30T11:03:22Z</time>
      </trkpt>
    </trkseg>
  </trk>
</gpx>